Startpagina
METAR-TAF:

METAR-TAF

Vliegvelden :

Ndjamena, Tsjaad

breedte: 12-08N, lengte: 015-02E, hoogte: 295 m

Actueel weer

Dit bericht is 1 uur en het 11 minuten geleden gemaakt, om 04:00 UTC
Wind 6 kt uit het noordnoordoosten
Temperatuur 18°C
Vochtigheid 26%
Druk 1014 hPa
Zicht 10 km of meer
geen wolken onder 1500 m en geen cumulonimbus

METAR: FTTJ 140400Z 02006KT CAVOK 18/M02 Q1014 NOSIG

Tijdstip: 06:11 (05:11 UTC)

Verwachting

Dit bericht is 6 uur en het 11 minuten geleden gemaakt, om 23:00 UTC
Verwachting geldig van 14 om 00 UTC tot 15 om 06 UTC
Wind 6 kt uit het noordnoordwesten
Zicht: 8000 m
Tijdelijke
van 14 om 07 UTC tot 14 om 13 UTC
Wind 10 kt uit het noordnoordoosten

TAF: FTTJ 132300Z 1400/1506 34006KT 8000 NSW TEMPO 1407/1413 02010KT

Waarnemingen en weersverwachtingen van meer dan 4000 vliegvelden (METAR en TAF).

De beschikbare stations zijn de gele en rode punten op de kaart.

Ga met uw muis naar het station om de naam te zien.

Klik dan om waarnemingen en weersverwachtingen te zien.

kaart wijzigen: klik op de groene knoppen met een zwart kruis om in te zoomen, op de groene knop met een streepje om uit te zoomen of op de groene pijlen voor aangrenzende kaarten.


METAR-TAF: